sensor_id;sensor_type;location;lat;lon;timestamp;pressure;altitude;pressure_sealevel;temperature;humidity
28008;BME280;15333;50.010;20.020;2023-05-24T00:02:40;98439.47;;;15.55;100.00
28008;BME280;15333;50.010;20.020;2023-05-24T00:05:41;98436.78;;;15.55;100.00
28008;BME280;15333;50.010;20.020;2023-05-24T00:08:42;98439.06;;;15.50;100.00
28008;BME280;15333;50.010;20.020;2023-05-24T00:11:44;98448.84;;;15.51;100.00
28008;BME280;15333;50.010;20.020;2023-05-24T00:14:44;98440.91;;;15.49;100.00
28008;BME280;15333;50.010;20.020;2023-05-24T00:17:45;98444.19;;;15.53;100.00
28008;BME280;15333;50.010;20.020;2023-05-24T00:20:46;98440.66;;;15.43;100.00
28008;BME280;15333;50.010;20.020;2023-05-24T00:23:47;98444.06;;;15.45;100.00
28008;BME280;15333;50.010;20.020;2023-05-24T00:26:51;98442.94;;;15.47;100.00
28008;BME280;15333;50.010;20.020;2023-05-24T00:29:52;98443.59;;;15.49;100.00
28008;BME280;15333;50.010;20.020;2023-05-24T00:32:52;98436.84;;;15.45;100.00
28008;BME280;15333;50.010;20.020;2023-05-24T00:35:54;98434.91;;;15.38;100.00
28008;BME280;15333;50.010;20.020;2023-05-24T00:38:57;98437.13;;;15.42;100.00
28008;BME280;15333;50.010;20.020;2023-05-24T00:41:58;98437.97;;;15.43;100.00
28008;BME280;15333;50.010;20.020;2023-05-24T00:44:59;98432.91;;;15.40;100.00
28008;BME280;15333;50.010;20.020;2023-05-24T00:48:01;98438.38;;;15.48;100.00
28008;BME280;15333;50.010;20.020;2023-05-24T00:51:02;98437.59;;;15.38;100.00
28008;BME280;15333;50.010;20.020;2023-05-24T00:54:03;98423.81;;;15.41;100.00
28008;BME280;15333;50.010;20.020;2023-05-24T00:57:04;98436.59;;;15.39;100.00
28008;BME280;15333;50.010;20.020;2023-05-24T01:00:06;98441.28;;;15.37;100.00
28008;BME280;15333;50.010;20.020;2023-05-24T01:03:07;98425.81;;;15.39;100.00
28008;BME280;15333;50.010;20.020;2023-05-24T01:06:12;98433.22;;;15.37;100.00
28008;BME280;15333;50.010;20.020;2023-05-24T01:09:22;98435.75;;;15.38;100.00
28008;BME280;15333;50.010;20.020;2023-05-24T01:12:49;98437.59;;;15.38;100.00
28008;BME280;15333;50.010;20.020;2023-05-24T01:15:58;98437.53;;;15.29;100.00
28008;BME280;15333;50.010;20.020;2023-05-24T01:19:04;98436.22;;;15.34;100.00
28008;BME280;15333;50.010;20.020;2023-05-24T01:22:15;98446.25;;;15.41;100.00
28008;BME280;15333;50.010;20.020;2023-05-24T01:28:53;98446.00;;;15.35;100.00
28008;BME280;15333;50.010;20.020;2023-05-24T01:31:54;98457.63;;;15.35;100.00
28008;BME280;15333;50.010;20.020;2023-05-24T01:34:56;98448.00;;;15.33;100.00
28008;BME280;15333;50.010;20.020;2023-05-24T01:37:57;98448.31;;;15.29;100.00
28008;BME280;15333;50.010;20.020;2023-05-24T01:41:03;98456.25;;;15.31;100.00
28008;BME280;15333;50.010;20.020;2023-05-24T01:50:54;98447.00;;;15.34;100.00
28008;BME280;15333;50.010;20.020;2023-05-24T01:53:59;98445.47;;;15.31;100.00
28008;BME280;15333;50.010;20.020;2023-05-24T01:57:04;98446.69;;;15.37;100.00
28008;BME280;15333;50.010;20.020;2023-05-24T02:00:07;98447.69;;;15.36;100.00
28008;BME280;15333;50.010;20.020;2023-05-24T02:03:13;98452.00;;;15.28;100.00
28008;BME280;15333;50.010;20.020;2023-05-24T02:06:15;98451.00;;;15.29;100.00
28008;BME280;15333;50.010;20.020;2023-05-24T02:09:16;98448.94;;;15.23;100.00
28008;BME280;15333;50.010;20.020;2023-05-24T02:12:17;98445.94;;;15.26;100.00
28008;BME280;15333;50.010;20.020;2023-05-24T02:15:18;98450.06;;;15.21;100.00
28008;BME280;15333;50.010;20.020;2023-05-24T02:18:20;98445.53;;;15.21;100.00
28008;BME280;15333;50.010;20.020;2023-05-24T02:21:22;98446.09;;;15.25;100.00
28008;BME280;15333;50.010;20.020;2023-05-24T02:24:23;98453.25;;;15.16;100.00
28008;BME280;15333;50.010;20.020;2023-05-24T02:27:24;98454.94;;;15.17;100.00
28008;BME280;15333;50.010;20.020;2023-05-24T02:30:25;98455.22;;;15.14;100.00
28008;BME280;15333;50.010;20.020;2023-05-24T02:33:27;98458.91;;;15.13;100.00
28008;BME280;15333;50.010;20.020;2023-05-24T02:36:29;98453.84;;;15.10;100.00
28008;BME280;15333;50.010;20.020;2023-05-24T02:39:32;98449.00;;;15.14;100.00
28008;BME280;15333;50.010;20.020;2023-05-24T02:42:33;98450.44;;;15.08;100.00
28008;BME280;15333;50.010;20.020;2023-05-24T02:45:34;98460.94;;;15.11;100.00
28008;BME280;15333;50.010;20.020;2023-05-24T02:48:36;98457.53;;;15.09;100.00
28008;BME280;15333;50.010;20.020;2023-05-24T02:51:37;98461.78;;;15.12;100.00
28008;BME280;15333;50.010;20.020;2023-05-24T02:54:38;98460.72;;;15.05;100.00
28008;BME280;15333;50.010;20.020;2023-05-24T02:57:39;98473.72;;;15.09;100.00
28008;BME280;15333;50.010;20.020;2023-05-24T03:00:40;98461.09;;;15.10;100.00
28008;BME280;15333;50.010;20.020;2023-05-24T03:03:41;98464.94;;;15.07;100.00
28008;BME280;15333;50.010;20.020;2023-05-24T03:06:42;98463.94;;;15.08;100.00
28008;BME280;15333;50.010;20.020;2023-05-24T03:09:43;98466.78;;;15.07;100.00
28008;BME280;15333;50.010;20.020;2023-05-24T03:12:44;98458.41;;;15.10;100.00
28008;BME280;15333;50.010;20.020;2023-05-24T03:15:45;98471.72;;;15.11;100.00
28008;BME280;15333;50.010;20.020;2023-05-24T03:18:47;98467.34;;;15.10;100.00
28008;BME280;15333;50.010;20.020;2023-05-24T03:21:50;98466.63;;;15.08;100.00
28008;BME280;15333;50.010;20.020;2023-05-24T03:24:51;98468.31;;;15.09;100.00
28008;BME280;15333;50.010;20.020;2023-05-24T03:27:53;98478.50;;;15.15;100.00
28008;BME280;15333;50.010;20.020;2023-05-24T03:30:55;98476.78;;;15.14;100.00
28008;BME280;15333;50.010;20.020;2023-05-24T03:33:56;98483.88;;;15.15;100.00
28008;BME280;15333;50.010;20.020;2023-05-24T03:36:56;98482.50;;;15.11;100.00
28008;BME280;15333;50.010;20.020;2023-05-24T03:39:57;98479.97;;;15.10;100.00
28008;BME280;15333;50.010;20.020;2023-05-24T03:43:13;98478.81;;;15.12;100.00
28008;BME280;15333;50.010;20.020;2023-05-24T03:46:20;98481.03;;;15.17;100.00
28008;BME280;15333;50.010;20.020;2023-05-24T03:49:21;98491.25;;;15.13;100.00
28008;BME280;15333;50.010;20.020;2023-05-24T03:52:24;98489.50;;;15.22;100.00
28008;BME280;15333;50.010;20.020;2023-05-24T03:55:25;98499.44;;;15.21;100.00
28008;BME280;15333;50.010;20.020;2023-05-24T03:58:26;98500.16;;;15.23;100.00
28008;BME280;15333;50.010;20.020;2023-05-24T04:01:26;98507.34;;;15.33;100.00
28008;BME280;15333;50.010;20.020;2023-05-24T04:04:28;98500.84;;;15.25;100.00
28008;BME280;15333;50.010;20.020;2023-05-24T04:07:28;98509.63;;;15.27;100.00
28008;BME280;15333;50.010;20.020;2023-05-24T04:10:34;98509.03;;;15.34;100.00
28008;BME280;15333;50.010;20.020;2023-05-24T04:13:35;98508.34;;;15.32;100.00
28008;BME280;15333;50.010;20.020;2023-05-24T04:16:36;98516.50;;;15.40;100.00
28008;BME280;15333;50.010;20.020;2023-05-24T04:19:40;98515.19;;;15.44;100.00
28008;BME280;15333;50.010;20.020;2023-05-24T04:22:41;98522.00;;;15.48;100.00
28008;BME280;15333;50.010;20.020;2023-05-24T04:25:41;98526.81;;;15.54;100.00
28008;BME280;15333;50.010;20.020;2023-05-24T04:28:43;98526.22;;;15.50;100.00
28008;BME280;15333;50.010;20.020;2023-05-24T04:31:45;98538.69;;;15.61;100.00
28008;BME280;15333;50.010;20.020;2023-05-24T04:34:49;98539.81;;;15.58;100.00
28008;BME280;15333;50.010;20.020;2023-05-24T04:37:51;98540.38;;;15.62;100.00
28008;BME280;15333;50.010;20.020;2023-05-24T04:40:54;98546.00;;;15.69;100.00
28008;BME280;15333;50.010;20.020;2023-05-24T04:43:58;98556.56;;;15.62;100.00
28008;BME280;15333;50.010;20.020;2023-05-24T04:47:00;98554.25;;;15.67;100.00
28008;BME280;15333;50.010;20.020;2023-05-24T04:50:03;98556.22;;;15.65;100.00
28008;BME280;15333;50.010;20.020;2023-05-24T04:53:04;98555.38;;;15.64;100.00
28008;BME280;15333;50.010;20.020;2023-05-24T04:56:05;98560.88;;;15.55;100.00
28008;BME280;15333;50.010;20.020;2023-05-24T04:59:06;98561.53;;;15.57;100.00
28008;BME280;15333;50.010;20.020;2023-05-24T05:02:07;98569.97;;;15.54;100.00
28008;BME280;15333;50.010;20.020;2023-05-24T05:05:08;98571.91;;;15.52;100.00
28008;BME280;15333;50.010;20.020;2023-05-24T05:08:09;98572.81;;;15.43;100.00
28008;BME280;15333;50.010;20.020;2023-05-24T05:11:10;98576.84;;;15.39;100.00
28008;BME280;15333;50.010;20.020;2023-05-24T05:14:11;98582.88;;;15.23;100.00
28008;BME280;15333;50.010;20.020;2023-05-24T05:17:12;98586.81;;;15.28;100.00
28008;BME280;15333;50.010;20.020;2023-05-24T05:20:13;98593.69;;;15.13;100.00
28008;BME280;15333;50.010;20.020;2023-05-24T05:23:14;98599.69;;;15.07;100.00
28008;BME280;15333;50.010;20.020;2023-05-24T05:26:15;98600.00;;;15.04;100.00
28008;BME280;15333;50.010;20.020;2023-05-24T05:29:16;98608.53;;;15.00;100.00
28008;BME280;15333;50.010;20.020;2023-05-24T05:32:16;98615.19;;;15.05;100.00
28008;BME280;15333;50.010;20.020;2023-05-24T05:35:17;98617.19;;;15.03;100.00
28008;BME280;15333;50.010;20.020;2023-05-24T05:38:18;98609.38;;;15.00;100.00
28008;BME280;15333;50.010;20.020;2023-05-24T05:41:19;98615.28;;;15.13;100.00
28008;BME280;15333;50.010;20.020;2023-05-24T05:44:20;98615.28;;;15.13;100.00
28008;BME280;15333;50.010;20.020;2023-05-24T05:47:21;98626.06;;;15.13;100.00
28008;BME280;15333;50.010;20.020;2023-05-24T05:50:22;98634.25;;;15.21;100.00
28008;BME280;15333;50.010;20.020;2023-05-24T05:53:23;98630.28;;;15.25;100.00
28008;BME280;15333;50.010;20.020;2023-05-24T05:56:24;98634.75;;;15.35;100.00
28008;BME280;15333;50.010;20.020;2023-05-24T05:59:27;98632.66;;;15.28;100.00
28008;BME280;15333;50.010;20.020;2023-05-24T06:02:27;98631.38;;;15.33;100.00
28008;BME280;15333;50.010;20.020;2023-05-24T06:05:29;98638.22;;;15.27;100.00
28008;BME280;15333;50.010;20.020;2023-05-24T06:08:29;98639.03;;;15.27;100.00
28008;BME280;15333;50.010;20.020;2023-05-24T06:11:34;98638.50;;;15.24;100.00
28008;BME280;15333;50.010;20.020;2023-05-24T06:14:35;98643.63;;;15.27;100.00
28008;BME280;15333;50.010;20.020;2023-05-24T06:17:38;98647.06;;;15.19;100.00
28008;BME280;15333;50.010;20.020;2023-05-24T06:20:38;98652.13;;;15.22;100.00
28008;BME280;15333;50.010;20.020;2023-05-24T06:23:39;98650.66;;;15.38;100.00
28008;BME280;15333;50.010;20.020;2023-05-24T06:26:41;98660.03;;;15.34;100.00
28008;BME280;15333;50.010;20.020;2023-05-24T06:29:42;98668.03;;;15.25;100.00
28008;BME280;15333;50.010;20.020;2023-05-24T06:32:43;98671.63;;;15.44;100.00
28008;BME280;15333;50.010;20.020;2023-05-24T06:35:44;98676.31;;;15.42;100.00
28008;BME280;15333;50.010;20.020;2023-05-24T06:38:45;98670.84;;;15.34;100.00
28008;BME280;15333;50.010;20.020;2023-05-24T06:41:46;98674.91;;;15.38;100.00
28008;BME280;15333;50.010;20.020;2023-05-24T06:44:47;98682.41;;;15.44;100.00
28008;BME280;15333;50.010;20.020;2023-05-24T06:47:49;98694.56;;;15.57;100.00
28008;BME280;15333;50.010;20.020;2023-05-24T06:50:49;98690.59;;;15.52;100.00
28008;BME280;15333;50.010;20.020;2023-05-24T06:53:51;98698.28;;;15.56;100.00
28008;BME280;15333;50.010;20.020;2023-05-24T06:56:52;98688.66;;;15.54;100.00
28008;BME280;15333;50.010;20.020;2023-05-24T06:59:53;98697.94;;;15.69;100.00
28008;BME280;15333;50.010;20.020;2023-05-24T07:02:54;98701.63;;;15.68;100.00
28008;BME280;15333;50.010;20.020;2023-05-24T07:05:56;98703.13;;;15.53;100.00
28008;BME280;15333;50.010;20.020;2023-05-24T07:08:57;98710.72;;;15.67;100.00
28008;BME280;15333;50.010;20.020;2023-05-24T07:11:59;98709.34;;;15.63;100.00
28008;BME280;15333;50.010;20.020;2023-05-24T07:14:59;98718.69;;;15.69;100.00
28008;BME280;15333;50.010;20.020;2023-05-24T07:18:00;98716.47;;;15.82;100.00
28008;BME280;15333;50.010;20.020;2023-05-24T07:21:01;98721.03;;;15.81;100.00
28008;BME280;15333;50.010;20.020;2023-05-24T07:24:02;98716.50;;;15.99;100.00
28008;BME280;15333;50.010;20.020;2023-05-24T07:27:03;98721.66;;;15.93;100.00
28008;BME280;15333;50.010;20.020;2023-05-24T07:30:05;98735.31;;;15.91;100.00
28008;BME280;15333;50.010;20.020;2023-05-24T07:33:06;98731.56;;;16.02;100.00
28008;BME280;15333;50.010;20.020;2023-05-24T07:36:08;98738.09;;;15.99;100.00
28008;BME280;15333;50.010;20.020;2023-05-24T07:39:09;98738.78;;;16.01;100.00
28008;BME280;15333;50.010;20.020;2023-05-24T07:42:10;98741.88;;;16.06;100.00
28008;BME280;15333;50.010;20.020;2023-05-24T07:45:11;98745.31;;;15.81;100.00
28008;BME280;15333;50.010;20.020;2023-05-24T07:48:12;98749.25;;;15.87;100.00
28008;BME280;15333;50.010;20.020;2023-05-24T07:51:12;98750.91;;;15.97;100.00
28008;BME280;15333;50.010;20.020;2023-05-24T07:54:14;98752.44;;;16.00;100.00
28008;BME280;15333;50.010;20.020;2023-05-24T07:57:14;98757.69;;;16.01;100.00
28008;BME280;15333;50.010;20.020;2023-05-24T08:00:16;98760.59;;;16.18;100.00
28008;BME280;15333;50.010;20.020;2023-05-24T08:03:18;98756.44;;;16.23;100.00
28008;BME280;15333;50.010;20.020;2023-05-24T08:06:19;98759.50;;;16.28;100.00
28008;BME280;15333;50.010;20.020;2023-05-24T08:09:20;98762.69;;;16.24;100.00
28008;BME280;15333;50.010;20.020;2023-05-24T08:12:22;98761.09;;;16.03;100.00
28008;BME280;15333;50.010;20.020;2023-05-24T08:15:25;98775.75;;;15.64;100.00
28008;BME280;15333;50.010;20.020;2023-05-24T08:18:26;98782.59;;;15.49;100.00
28008;BME280;15333;50.010;20.020;2023-05-24T08:21:27;98783.97;;;15.25;100.00
28008;BME280;15333;50.010;20.020;2023-05-24T08:24:32;98792.66;;;15.00;100.00
28008;BME280;15333;50.010;20.020;2023-05-24T08:27:32;98794.38;;;14.82;100.00
28008;BME280;15333;50.010;20.020;2023-05-24T08:30:33;98797.19;;;14.71;100.00
28008;BME280;15333;50.010;20.020;2023-05-24T08:33:34;98799.19;;;14.69;100.00
28008;BME280;15333;50.010;20.020;2023-05-24T08:36:35;98797.78;;;14.74;100.00
28008;BME280;15333;50.010;20.020;2023-05-24T08:39:37;98806.41;;;14.59;100.00
28008;BME280;15333;50.010;20.020;2023-05-24T08:42:38;98809.69;;;14.62;100.00
28008;BME280;15333;50.010;20.020;2023-05-24T08:45:39;98809.09;;;14.59;100.00
28008;BME280;15333;50.010;20.020;2023-05-24T08:48:44;98821.56;;;14.50;100.00
28008;BME280;15333;50.010;20.020;2023-05-24T08:51:46;98827.81;;;14.50;100.00
28008;BME280;15333;50.010;20.020;2023-05-24T08:54:48;98835.59;;;14.44;100.00
28008;BME280;15333;50.010;20.020;2023-05-24T08:57:49;98830.53;;;14.70;100.00
28008;BME280;15333;50.010;20.020;2023-05-24T09:00:51;98838.31;;;14.54;100.00
28008;BME280;15333;50.010;20.020;2023-05-24T09:03:52;98839.69;;;14.38;100.00
28008;BME280;15333;50.010;20.020;2023-05-24T09:06:55;98845.31;;;14.35;100.00
28008;BME280;15333;50.010;20.020;2023-05-24T09:09:59;98843.66;;;14.44;100.00
28008;BME280;15333;50.010;20.020;2023-05-24T09:13:01;98853.59;;;14.43;100.00
28008;BME280;15333;50.010;20.020;2023-05-24T09:16:04;98862.59;;;14.23;100.00
28008;BME280;15333;50.010;20.020;2023-05-24T09:19:05;98855.97;;;14.37;100.00
28008;BME280;15333;50.010;20.020;2023-05-24T09:22:06;98865.69;;;14.19;100.00
28008;BME280;15333;50.010;20.020;2023-05-24T09:25:08;98870.22;;;14.18;100.00
28008;BME280;15333;50.010;20.020;2023-05-24T09:28:13;98871.38;;;14.25;100.00
28008;BME280;15333;50.010;20.020;2023-05-24T09:31:15;98877.94;;;14.02;100.00
28008;BME280;15333;50.010;20.020;2023-05-24T09:34:16;98884.06;;;14.04;100.00
28008;BME280;15333;50.010;20.020;2023-05-24T09:37:22;98895.59;;;13.85;100.00
28008;BME280;15333;50.010;20.020;2023-05-24T09:40:25;98890.03;;;13.56;100.00
28008;BME280;15333;50.010;20.020;2023-05-24T09:43:27;98895.94;;;13.50;100.00
28008;BME280;15333;50.010;20.020;2023-05-24T09:46:34;98901.31;;;13.50;100.00
28008;BME280;15333;50.010;20.020;2023-05-24T09:49:36;98899.63;;;13.28;100.00
28008;BME280;15333;50.010;20.020;2023-05-24T09:52:38;98906.22;;;13.24;100.00
28008;BME280;15333;50.010;20.020;2023-05-24T09:55:39;98908.50;;;13.29;100.00
28008;BME280;15333;50.010;20.020;2023-05-24T09:58:40;98905.66;;;13.21;100.00
28008;BME280;15333;50.010;20.020;2023-05-24T10:01:42;98908.78;;;13.26;100.00
28008;BME280;15333;50.010;20.020;2023-05-24T10:04:43;98921.81;;;13.30;100.00
28008;BME280;15333;50.010;20.020;2023-05-24T10:07:45;98928.78;;;13.33;100.00
28008;BME280;15333;50.010;20.020;2023-05-24T10:10:46;98920.44;;;13.36;100.00
28008;BME280;15333;50.010;20.020;2023-05-24T10:13:47;98933.53;;;13.41;100.00
28008;BME280;15333;50.010;20.020;2023-05-24T10:16:48;98927.81;;;13.34;100.00
28008;BME280;15333;50.010;20.020;2023-05-24T10:19:49;98927.53;;;13.37;100.00
28008;BME280;15333;50.010;20.020;2023-05-24T10:22:54;98925.34;;;13.42;100.00
28008;BME280;15333;50.010;20.020;2023-05-24T10:26:03;98933.06;;;13.56;100.00
28008;BME280;15333;50.010;20.020;2023-05-24T10:29:15;98929.66;;;13.54;100.00
28008;BME280;15333;50.010;20.020;2023-05-24T10:32:20;98937.00;;;13.52;100.00
28008;BME280;15333;50.010;20.020;2023-05-24T10:35:22;98934.06;;;13.55;100.00
28008;BME280;15333;50.010;20.020;2023-05-24T10:38:24;98936.75;;;13.55;100.00
28008;BME280;15333;50.010;20.020;2023-05-24T10:41:25;98936.78;;;13.65;100.00
28008;BME280;15333;50.010;20.020;2023-05-24T10:44:28;98927.34;;;13.70;100.00
28008;BME280;15333;50.010;20.020;2023-05-24T10:47:29;98936.66;;;13.66;100.00
28008;BME280;15333;50.010;20.020;2023-05-24T10:50:31;98939.94;;;13.91;100.00
28008;BME280;15333;50.010;20.020;2023-05-24T10:53:38;98946.19;;;14.01;100.00
28008;BME280;15333;50.010;20.020;2023-05-24T10:56:43;98943.25;;;14.04;100.00
28008;BME280;15333;50.010;20.020;2023-05-24T10:59:45;98951.53;;;14.12;100.00
28008;BME280;15333;50.010;20.020;2023-05-24T11:03:02;98954.59;;;14.07;100.00
28008;BME280;15333;50.010;20.020;2023-05-24T11:06:03;98954.09;;;14.23;100.00
28008;BME280;15333;50.010;20.020;2023-05-24T11:09:08;98951.53;;;14.12;100.00
28008;BME280;15333;50.010;20.020;2023-05-24T11:12:13;98957.25;;;13.98;100.00
28008;BME280;15333;50.010;20.020;2023-05-24T11:15:22;98967.25;;;14.17;100.00
28008;BME280;15333;50.010;20.020;2023-05-24T11:18:23;98959.84;;;14.09;100.00
28008;BME280;15333;50.010;20.020;2023-05-24T11:21:26;98964.28;;;14.40;100.00
28008;BME280;15333;50.010;20.020;2023-05-24T11:24:27;98963.06;;;14.64;100.00
28008;BME280;15333;50.010;20.020;2023-05-24T11:27:29;98954.00;;;14.55;100.00
28008;BME280;15333;50.010;20.020;2023-05-24T11:30:30;98952.50;;;14.81;100.00
28008;BME280;15333;50.010;20.020;2023-05-24T11:33:33;98955.38;;;14.49;100.00
28008;BME280;15333;50.010;20.020;2023-05-24T11:36:34;98957.38;;;14.47;100.00
28008;BME280;15333;50.010;20.020;2023-05-24T11:39:37;98969.56;;;14.52;100.00
28008;BME280;15333;50.010;20.020;2023-05-24T11:42:38;98966.44;;;14.46;100.00
28008;BME280;15333;50.010;20.020;2023-05-24T11:45:44;98972.38;;;14.40;100.00
28008;BME280;15333;50.010;20.020;2023-05-24T11:48:58;98972.50;;;14.18;100.00
28008;BME280;15333;50.010;20.020;2023-05-24T11:52:00;98974.94;;;14.52;100.00
28008;BME280;15333;50.010;20.020;2023-05-24T11:55:02;98971.72;;;14.58;100.00
28008;BME280;15333;50.010;20.020;2023-05-24T11:58:06;98966.91;;;14.31;100.00
28008;BME280;15333;50.010;20.020;2023-05-24T12:01:29;98968.47;;;14.64;100.00
28008;BME280;15333;50.010;20.020;2023-05-24T12:04:31;98971.66;;;14.88;100.00
28008;BME280;15333;50.010;20.020;2023-05-24T12:07:33;98956.09;;;14.92;100.00
28008;BME280;15333;50.010;20.020;2023-05-24T12:10:35;98979.31;;;14.83;100.00
28008;BME280;15333;50.010;20.020;2023-05-24T12:13:36;98964.28;;;14.90;100.00
28008;BME280;15333;50.010;20.020;2023-05-24T12:16:37;98972.81;;;15.14;100.00
28008;BME280;15333;50.010;20.020;2023-05-24T12:19:42;98976.22;;;14.97;100.00
28008;BME280;15333;50.010;20.020;2023-05-24T12:22:54;98975.91;;;14.81;100.00
28008;BME280;15333;50.010;20.020;2023-05-24T12:25:58;98975.97;;;14.60;100.00
28008;BME280;15333;50.010;20.020;2023-05-24T12:29:00;98974.41;;;14.58;100.00
28008;BME280;15333;50.010;20.020;2023-05-24T12:32:01;98982.09;;;14.72;100.00
28008;BME280;15333;50.010;20.020;2023-05-24T12:35:03;98975.00;;;14.71;100.00
28008;BME280;15333;50.010;20.020;2023-05-24T12:38:07;98975.00;;;14.71;100.00
28008;BME280;15333;50.010;20.020;2023-05-24T12:41:09;98968.50;;;14.73;100.00
28008;BME280;15333;50.010;20.020;2023-05-24T12:44:11;98962.25;;;14.63;100.00
28008;BME280;15333;50.010;20.020;2023-05-24T12:47:12;98965.38;;;14.78;100.00
28008;BME280;15333;50.010;20.020;2023-05-24T12:50:13;98971.34;;;14.81;100.00
28008;BME280;15333;50.010;20.020;2023-05-24T12:53:16;98967.56;;;15.03;100.00
28008;BME280;15333;50.010;20.020;2023-05-24T12:56:19;98964.84;;;14.84;100.00
28008;BME280;15333;50.010;20.020;2023-05-24T12:59:20;98961.47;;;15.01;100.00
28008;BME280;15333;50.010;20.020;2023-05-24T13:02:21;98962.59;;;14.89;100.00
28008;BME280;15333;50.010;20.020;2023-05-24T13:05:24;98962.34;;;15.31;100.00
28008;BME280;15333;50.010;20.020;2023-05-24T13:08:24;98963.06;;;15.23;100.00
28008;BME280;15333;50.010;20.020;2023-05-24T13:11:28;98964.84;;;14.94;100.00
28008;BME280;15333;50.010;20.020;2023-05-24T13:14:30;98968.25;;;14.86;100.00
28008;BME280;15333;50.010;20.020;2023-05-24T13:17:31;98964.28;;;15.00;100.00
28008;BME280;15333;50.010;20.020;2023-05-24T13:20:32;98968.81;;;14.99;100.00
28008;BME280;15333;50.010;20.020;2023-05-24T13:23:34;98966.88;;;14.92;100.00
28008;BME280;15333;50.010;20.020;2023-05-24T13:26:38;98964.63;;;15.25;100.00
28008;BME280;15333;50.010;20.020;2023-05-24T13:29:39;98962.63;;;15.27;100.00
28008;BME280;15333;50.010;20.020;2023-05-24T13:32:40;98966.34;;;15.65;100.00
28008;BME280;15333;50.010;20.020;2023-05-24T13:35:41;98961.53;;;15.59;100.00
28008;BME280;15333;50.010;20.020;2023-05-24T13:38:42;98961.25;;;15.62;100.00
28008;BME280;15333;50.010;20.020;2023-05-24T13:41:43;98965.47;;;15.16;100.00
28008;BME280;15333;50.010;20.020;2023-05-24T13:44:44;98969.72;;;15.19;100.00
28008;BME280;15333;50.010;20.020;2023-05-24T13:47:45;98970.03;;;15.74;100.00
28008;BME280;15333;50.010;20.020;2023-05-24T13:50:45;98963.31;;;15.10;100.00
28008;BME280;15333;50.010;20.020;2023-05-24T13:53:47;98968.31;;;15.44;100.00
28008;BME280;15333;50.010;20.020;2023-05-24T13:56:48;98975.97;;;15.39;100.00
28008;BME280;15333;50.010;20.020;2023-05-24T13:59:49;98981.38;;;15.39;100.00
28008;BME280;15333;50.010;20.020;2023-05-24T14:02:50;98978.09;;;15.25;100.00
28008;BME280;15333;50.010;20.020;2023-05-24T14:05:52;98974.94;;;15.01;100.00
28008;BME280;15333;50.010;20.020;2023-05-24T14:08:53;98972.81;;;14.95;100.00
28008;BME280;15333;50.010;20.020;2023-05-24T14:11:54;98972.94;;;14.84;100.00
28008;BME280;15333;50.010;20.020;2023-05-24T14:14:54;98977.59;;;14.82;100.00
28008;BME280;15333;50.010;20.020;2023-05-24T14:17:56;98975.63;;;14.84;100.00
28008;BME280;15333;50.010;20.020;2023-05-24T14:20:57;98970.28;;;15.03;100.00
28008;BME280;15333;50.010;20.020;2023-05-24T14:23:58;98974.28;;;15.38;100.00
28008;BME280;15333;50.010;20.020;2023-05-24T14:26:59;98968.63;;;15.60;100.00
28008;BME280;15333;50.010;20.020;2023-05-24T14:30:01;98969.03;;;15.84;100.00
28008;BME280;15333;50.010;20.020;2023-05-24T14:33:02;98966.34;;;15.65;100.00
28008;BME280;15333;50.010;20.020;2023-05-24T14:36:06;98966.19;;;15.57;100.00
28008;BME280;15333;50.010;20.020;2023-05-24T14:39:07;98969.44;;;15.51;100.00
28008;BME280;15333;50.010;20.020;2023-05-24T14:42:08;98965.16;;;15.00;100.00
28008;BME280;15333;50.010;20.020;2023-05-24T14:45:09;98967.88;;;15.39;100.00
28008;BME280;15333;50.010;20.020;2023-05-24T14:48:10;98969.19;;;15.54;100.00
28008;BME280;15333;50.010;20.020;2023-05-24T14:51:11;98971.59;;;15.76;100.00
28008;BME280;15333;50.010;20.020;2023-05-24T14:54:12;98972.19;;;15.70;100.00
28008;BME280;15333;50.010;20.020;2023-05-24T14:57:13;98977.84;;;15.57;100.00
28008;BME280;15333;50.010;20.020;2023-05-24T15:00:14;98979.66;;;15.18;100.00
28008;BME280;15333;50.010;20.020;2023-05-24T15:03:15;98982.44;;;14.88;100.00
28008;BME280;15333;50.010;20.020;2023-05-24T15:06:16;98990.41;;;14.99;100.00
28008;BME280;15333;50.010;20.020;2023-05-24T15:09:17;98991.28;;;15.09;100.00
28008;BME280;15333;50.010;20.020;2023-05-24T15:12:19;98991.50;;;14.77;100.00
28008;BME280;15333;50.010;20.020;2023-05-24T15:15:21;98988.72;;;14.98;100.00
28008;BME280;15333;50.010;20.020;2023-05-24T15:18:22;98986.53;;;14.82;100.00
28008;BME280;15333;50.010;20.020;2023-05-24T15:21:25;98992.66;;;14.84;100.00
28008;BME280;15333;50.010;20.020;2023-05-24T15:24:26;98973.97;;;15.02;100.00
28008;BME280;15333;50.010;20.020;2023-05-24T15:27:26;98980.91;;;15.14;100.00
28008;BME280;15333;50.010;20.020;2023-05-24T15:30:28;98983.78;;;15.13;100.00
28008;BME280;15333;50.010;20.020;2023-05-24T15:33:29;98985.06;;;15.18;100.00
28008;BME280;15333;50.010;20.020;2023-05-24T15:36:30;98988.75;;;15.17;100.00
28008;BME280;15333;50.010;20.020;2023-05-24T15:39:32;98985.31;;;15.15;100.00
28008;BME280;15333;50.010;20.020;2023-05-24T15:42:34;98997.25;;;15.22;100.00
28008;BME280;15333;50.010;20.020;2023-05-24T15:45:35;98990.19;;;15.41;100.00
28008;BME280;15333;50.010;20.020;2023-05-24T15:48:36;98996.19;;;15.54;100.00
28008;BME280;15333;50.010;20.020;2023-05-24T15:51:37;98997.00;;;15.45;100.00